createdAt,value
2017-03-14T00:00:02.875Z,0
2017-03-14T00:05:02.896Z,1
2017-03-14T00:10:03.558Z,0
2017-03-14T00:15:03.277Z,0
2017-03-14T00:20:02.882Z,0
2017-03-14T00:25:03.474Z,0
2017-03-14T00:30:03.059Z,0
2017-03-14T00:35:02.824Z,0
2017-03-14T00:40:03.606Z,0
2017-03-14T00:45:03.309Z,0
2017-03-14T00:50:02.945Z,0
2017-03-14T00:55:02.699Z,0
2017-03-14T01:00:03.424Z,0
2017-03-14T01:05:02.858Z,0
2017-03-14T01:10:02.622Z,0
2017-03-14T01:15:03.343Z,0
2017-03-14T01:20:02.926Z,0
2017-03-14T01:25:03.509Z,0
2017-03-14T01:30:03.222Z,0
2017-03-14T01:35:02.761Z,0
2017-03-14T01:40:03.461Z,1
2017-03-14T01:45:03.000Z,1
2017-03-14T01:50:02.696Z,1
2017-03-14T01:55:03.259Z,0
2017-03-14T02:00:03.099Z,0
2017-03-14T02:05:02.683Z,0
2017-03-14T02:10:03.313Z,0
2017-03-14T02:15:02.968Z,0
2017-03-14T02:20:03.572Z,0
2017-03-14T02:25:03.161Z,1
2017-03-14T02:30:02.682Z,1
2017-03-14T02:35:03.338Z,2
2017-03-14T02:40:02.949Z,2
2017-03-14T02:45:03.587Z,1
2017-03-14T02:50:03.283Z,2
2017-03-14T02:55:03.029Z,0
2017-03-14T03:00:02.855Z,1
2017-03-14T03:05:03.496Z,1
2017-03-14T03:10:03.307Z,0
2017-03-14T03:15:02.993Z,2
2017-03-14T03:20:02.660Z,0
2017-03-14T03:25:03.299Z,2
2017-03-14T03:30:02.899Z,2
2017-03-14T03:35:03.548Z,1
2017-03-14T03:40:03.364Z,1
2017-03-14T03:45:03.107Z,0
2017-03-14T03:50:02.764Z,0
2017-03-14T03:55:03.538Z,0
2017-03-14T04:00:03.327Z,0
2017-03-14T04:05:02.805Z,0
2017-03-14T04:10:03.550Z,0
2017-03-14T04:15:03.112Z,0
2017-03-14T04:20:02.781Z,0
2017-03-14T04:25:03.451Z,0
2017-03-14T04:30:02.948Z,0
2017-03-14T04:35:02.652Z,0
2017-03-14T04:40:03.453Z,0
2017-03-14T04:45:03.229Z,0
2017-03-14T04:50:02.862Z,0
2017-03-14T04:55:02.864Z,0
2017-03-14T05:00:03.640Z,2
2017-03-14T05:05:03.293Z,1
2017-03-14T05:10:02.963Z,1
2017-03-14T05:15:02.586Z,2
2017-03-14T05:20:03.340Z,2
2017-03-14T05:25:02.961Z,1
2017-03-14T05:30:02.914Z,2
2017-03-14T05:35:03.505Z,0
2017-03-14T05:40:03.351Z,2
2017-03-14T05:45:02.907Z,2
2017-03-14T05:50:03.517Z,2
2017-03-14T05:55:03.243Z,2
2017-03-14T06:00:02.973Z,2
2017-03-14T06:05:02.771Z,3
2017-03-14T06:10:03.460Z,0
2017-03-14T06:15:03.045Z,1
2017-03-14T06:20:02.751Z,0
2017-03-14T06:25:03.399Z,2
2017-03-14T06:30:03.004Z,0
2017-03-14T06:35:03.578Z,2
2017-03-14T06:40:03.233Z,2
2017-03-14T06:45:02.834Z,2
2017-03-14T06:50:03.501Z,3
2017-03-14T06:55:03.205Z,3
2017-03-14T07:00:02.850Z,2
2017-03-14T07:05:03.524Z,4
2017-03-14T07:10:03.143Z,4
2017-03-14T07:15:02.656Z,1
2017-03-14T07:20:03.301Z,5
2017-03-14T07:25:02.911Z,5
2017-03-14T07:30:03.494Z,4
2017-03-14T07:35:03.045Z,3
2017-03-14T07:40:02.659Z,3
2017-03-14T07:45:03.310Z,7
2017-03-14T07:50:02.961Z,5
2017-03-14T07:55:02.699Z,4
2017-03-14T08:00:03.414Z,4
2017-03-14T08:05:03.202Z,2
2017-03-14T08:10:02.828Z,0
2017-03-14T08:15:03.420Z,5
2017-03-14T08:20:02.960Z,2
2017-03-14T08:25:03.540Z,3
2017-03-14T08:30:03.191Z,4
2017-03-14T08:35:02.807Z,7
2017-03-14T08:40:03.517Z,3
2017-03-14T08:45:03.228Z,3
2017-03-14T08:50:02.839Z,3
2017-03-14T08:55:03.579Z,5
2017-03-14T09:00:03.220Z,5
2017-03-14T09:05:02.999Z,3
2017-03-14T09:10:02.741Z,4
2017-03-14T09:15:03.381Z,5
2017-03-14T09:20:02.985Z,2
2017-03-14T09:25:02.685Z,3
2017-03-14T09:30:03.257Z,7
2017-03-14T09:35:03.023Z,3
2017-03-14T09:40:02.625Z,4
2017-03-14T09:50:02.917Z,5
2017-03-14T09:55:02.584Z,2
2017-03-14T10:00:02.737Z,5
2017-03-14T10:05:03.476Z,6
2017-03-14T10:10:03.416Z,5
2017-03-14T10:15:02.969Z,7
2017-03-14T10:20:02.655Z,3
2017-03-14T10:25:02.739Z,8
2017-03-14T10:30:02.636Z,6
2017-03-14T10:35:03.270Z,8
2017-03-14T10:40:03.022Z,4
2017-03-14T10:45:02.610Z,6
2017-03-14T10:50:03.204Z,4
2017-03-14T10:55:02.811Z,5
2017-03-14T11:00:03.549Z,6
2017-03-14T11:05:03.218Z,9
2017-03-14T11:10:03.213Z,3
2017-03-14T11:15:03.223Z,7
2017-03-14T11:20:02.921Z,5
2017-03-14T11:25:02.872Z,5
2017-03-14T11:30:03.311Z,5
2017-03-14T11:35:03.578Z,5
2017-03-14T11:40:03.495Z,4
2017-03-14T11:45:03.501Z,3
2017-03-14T11:50:02.780Z,5
2017-03-14T11:55:02.964Z,8
2017-03-14T12:00:02.848Z,2
2017-03-14T12:05:03.449Z,7
2017-03-14T12:10:03.327Z,6
2017-03-14T12:15:02.637Z,2
2017-03-14T12:20:02.675Z,7
2017-03-14T12:25:03.014Z,6
2017-03-14T12:30:03.086Z,4
2017-03-14T12:35:03.282Z,5
2017-03-14T12:40:02.669Z,5
2017-03-14T12:45:02.830Z,7
2017-03-14T12:50:02.756Z,5
2017-03-14T12:55:03.463Z,4
2017-03-14T13:00:03.344Z,3
2017-03-14T13:05:03.075Z,5
2017-03-14T13:10:02.954Z,4
2017-03-14T13:15:02.755Z,9
2017-03-14T13:20:02.601Z,3
2017-03-14T13:25:03.506Z,2
2017-03-14T13:30:02.767Z,6
2017-03-14T13:35:02.579Z,3
2017-03-14T13:40:02.746Z,6
2017-03-14T13:45:02.731Z,9
2017-03-14T13:50:03.459Z,6
2017-03-14T13:55:02.987Z,4
2017-03-14T14:00:03.209Z,4
2017-03-14T14:05:03.351Z,7
2017-03-14T14:10:03.697Z,7
2017-03-14T14:15:03.189Z,5
2017-03-14T14:20:03.300Z,6
2017-03-14T14:25:03.361Z,4
2017-03-14T14:30:02.748Z,6
2017-03-14T14:35:02.643Z,5
2017-03-14T14:40:02.821Z,3
2017-03-14T14:45:03.142Z,2
2017-03-14T14:50:02.947Z,2
2017-03-14T14:55:02.989Z,5
2017-03-14T15:00:03.221Z,4
2017-03-14T15:05:03.247Z,4
2017-03-14T15:10:03.273Z,3
2017-03-14T15:15:03.525Z,4
2017-03-14T15:20:03.523Z,4
2017-03-14T15:25:02.863Z,5
2017-03-14T15:30:02.983Z,5
2017-03-14T15:35:03.102Z,4
2017-03-14T15:40:02.660Z,2
2017-03-14T15:45:03.074Z,5
2017-03-14T15:50:02.947Z,3
2017-03-14T15:55:03.031Z,2
2017-03-14T16:00:03.091Z,3
2017-03-14T16:05:02.714Z,5
2017-03-14T16:10:03.509Z,3
2017-03-14T16:15:03.250Z,3
2017-03-14T16:20:03.180Z,2
2017-03-14T16:25:03.425Z,2
2017-03-14T16:30:03.154Z,5
2017-03-14T16:35:02.875Z,4
2017-03-14T16:40:03.563Z,7
2017-03-14T16:45:03.309Z,6
2017-03-14T16:50:02.964Z,6
2017-03-14T16:55:03.575Z,9
2017-03-14T17:00:03.283Z,4
2017-03-14T17:05:03.034Z,2
2017-03-14T17:10:02.679Z,6
2017-03-14T17:15:03.388Z,4
2017-03-14T17:20:03.072Z,4
2017-03-14T17:25:02.734Z,2
2017-03-14T17:30:03.307Z,2
2017-03-14T17:35:03.162Z,3
2017-03-14T17:40:02.805Z,6
2017-03-14T17:45:03.461Z,6
2017-03-14T17:50:03.127Z,7
2017-03-14T17:55:02.847Z,7
2017-03-14T18:00:03.573Z,5
2017-03-14T18:05:03.296Z,5
2017-03-14T18:10:02.886Z,6
2017-03-14T18:15:02.613Z,8
2017-03-14T18:20:03.528Z,6
2017-03-14T18:25:03.238Z,7
2017-03-14T18:30:02.904Z,5
2017-03-14T18:35:02.757Z,7
2017-03-14T18:40:03.534Z,4
2017-03-14T18:45:03.164Z,3
2017-03-14T18:50:02.749Z,3
2017-03-14T18:55:03.453Z,7
2017-03-14T19:00:03.001Z,6
2017-03-14T19:05:02.699Z,6
2017-03-14T19:10:03.418Z,5
2017-03-14T19:15:03.105Z,5
2017-03-14T19:20:02.843Z,4
2017-03-14T19:25:03.499Z,5
2017-03-14T19:30:03.220Z,3
2017-03-14T19:35:02.752Z,6
2017-03-14T19:40:03.412Z,3
2017-03-14T19:45:03.342Z,3
2017-03-14T19:50:02.890Z,3
2017-03-14T19:55:03.608Z,2
2017-03-14T20:00:03.331Z,3
2017-03-14T20:05:03.027Z,2
2017-03-14T20:10:02.679Z,2
2017-03-14T20:15:03.274Z,3
2017-03-14T20:20:03.331Z,4
2017-03-14T20:25:02.931Z,3
2017-03-14T20:30:03.493Z,2
2017-03-14T20:35:03.294Z,3
2017-03-14T20:40:03.110Z,4
2017-03-14T20:45:02.755Z,3
2017-03-14T20:50:03.394Z,2
2017-03-14T20:55:03.017Z,3
2017-03-14T21:00:02.644Z,2
2017-03-14T21:05:03.262Z,4
2017-03-14T21:10:03.008Z,5
2017-03-14T21:15:02.684Z,5
2017-03-14T21:20:03.524Z,3
2017-03-14T21:25:03.209Z,4
2017-03-14T21:30:02.776Z,3
2017-03-14T21:35:03.448Z,2
2017-03-14T21:40:03.209Z,3
2017-03-14T21:45:02.812Z,3
2017-03-14T21:50:03.566Z,3
2017-03-14T21:55:03.175Z,4
2017-03-14T22:00:02.923Z,3
2017-03-14T22:05:03.612Z,4
2017-03-14T22:10:03.221Z,2
2017-03-14T22:15:02.910Z,2
2017-03-14T22:20:02.673Z,2
2017-03-14T22:25:03.388Z,2
2017-03-14T22:30:02.939Z,2
2017-03-14T22:35:02.646Z,1
2017-03-14T22:40:03.346Z,2
2017-03-14T22:45:03.049Z,1
2017-03-14T22:50:02.727Z,0
2017-03-14T22:55:03.494Z,2
2017-03-14T23:00:03.134Z,0
2017-03-14T23:05:02.791Z,2
2017-03-14T23:10:03.462Z,2
2017-03-14T23:15:03.158Z,2
2017-03-14T23:20:02.720Z,2
2017-03-14T23:25:03.400Z,2
2017-03-14T23:30:02.994Z,0
2017-03-14T23:35:02.616Z,1
2017-03-14T23:40:03.274Z,0
2017-03-14T23:45:02.856Z,0
2017-03-14T23:50:03.230Z,2
2017-03-14T23:55:02.909Z,2
